Time;durP1;ratioP1;P1;durP2;ratioP2;P2;SDS_P1;SDS_P2;PMS_P1;PMS_P2;Temp;Humidity;BMP_temperature;BMP_pressure;BME280_temperature;BME280_humidity;BME280_pressure;Samples;Min_cycle;Max_cycle;Signal;HPM_P1;HPM_P2
2022/09/26 00:00:00;;;;;;;11.07;9.87;;;12.40;99.90;;;;;;5016103;28;20182;-86
2022/09/26 00:02:28;;;;;;;12.47;10.80;;;12.40;99.90;;;;;;5016327;28;20218;-86
2022/09/26 00:04:54;;;;;;;11.00;9.57;;;12.40;99.90;;;;;;5016456;28;20197;-86
2022/09/26 00:07:20;;;;;;;11.73;9.80;;;12.30;99.90;;;;;;5016787;28;20191;-86
2022/09/26 00:09:47;;;;;;;9.77;8.77;;;12.30;99.90;;;;;;5017599;28;20272;-86
2022/09/26 00:12:14;;;;;;;9.80;8.80;;;12.20;99.90;;;;;;5016853;28;20192;-86
2022/09/26 00:14:40;;;;;;;9.77;8.33;;;12.00;99.90;;;;;;5016621;28;20285;-86
2022/09/26 00:17:05;;;;;;;10.10;9.07;;;12.00;99.90;;;;;;5013008;28;20217;-86
2022/09/26 00:19:31;;;;;;;11.53;8.77;;;11.90;99.90;;;;;;4996792;28;20189;-86
2022/09/26 00:21:57;;;;;;;10.93;9.43;;;11.80;99.90;;;;;;4997302;28;20241;-86
2022/09/26 00:24:23;;;;;;;10.23;9.10;;;11.80;99.90;;;;;;4998091;28;20196;-86
2022/09/26 00:26:49;;;;;;;11.13;9.27;;;11.70;99.90;;;;;;4998564;28;20204;-87
2022/09/26 00:29:15;;;;;;;10.50;9.37;;;11.60;99.90;;;;;;4998030;28;20270;-86
2022/09/26 00:31:43;;;;;;;11.47;8.23;;;11.60;99.90;;;;;;4996291;28;20180;-86
2022/09/26 00:34:15;;;;;;;9.97;8.37;;;11.50;99.90;;;;;;5012430;28;20184;-86
2022/09/26 00:36:41;;;;;;;11.97;9.70;;;11.50;99.90;;;;;;5012488;28;20614;-86
2022/09/26 00:39:10;;;;;;;10.30;9.13;;;11.40;99.90;;;;;;4996427;28;20188;-86
2022/09/26 00:41:37;;;;;;;10.63;8.43;;;11.30;99.90;;;;;;5012574;28;20212;-86
2022/09/26 00:44:32;;;;;;;10.17;8.67;;;11.30;99.90;;;;;;5012860;28;20181;-86
2022/09/26 00:46:58;;;;;;;11.03;9.07;;;11.10;99.90;;;;;;5032135;28;20199;-86
2022/09/26 00:49:32;;;;;;;10.03;8.83;;;11.00;99.90;;;;;;5016230;28;20183;-87
2022/09/26 00:52:16;;;;;;;9.80;8.80;;;11.00;99.90;;;;;;5018234;28;20277;-86
2022/09/26 00:54:45;;;;;;;10.07;8.50;;;11.00;99.90;;;;;;5019907;28;20191;-86
2022/09/26 00:57:25;;;;;;;11.37;8.60;;;10.90;99.90;;;;;;5019630;28;20231;-86
2022/09/26 00:59:59;;;;;;;10.83;8.90;;;10.90;99.90;;;;;;5019933;28;20187;-86
2022/09/26 01:02:28;;;;;;;9.33;8.33;;;10.90;99.90;;;;;;5020170;28;20188;-86
2022/09/26 01:04:56;;;;;;;9.87;8.30;;;10.90;99.90;;;;;;5020138;28;20210;-86
2022/09/26 01:07:24;;;;;;;10.10;8.73;;;10.90;99.90;;;;;;5036790;28;20183;-86
2022/09/26 01:09:52;;;;;;;9.70;8.03;;;10.90;99.90;;;;;;5020280;28;20221;-86
2022/09/26 01:12:20;;;;;;;9.70;8.47;;;10.90;99.90;;;;;;5020427;28;20209;-86
2022/09/26 01:14:56;;;;;;;11.27;8.60;;;10.90;99.90;;;;;;5036364;28;20251;-86
2022/09/26 01:17:24;;;;;;;8.30;7.47;;;10.90;99.90;;;;;;5015715;28;20274;-86
2022/09/26 01:20:16;;;;;;;8.87;7.97;;;10.90;99.90;;;;;;5016101;28;20180;-86
2022/09/26 01:23:30;;;;;;;8.50;7.57;;;10.90;99.90;;;;;;5015943;28;20193;-86
2022/09/26 01:26:12;;;;;;;8.40;7.47;;;11.00;99.90;;;;;;5007942;28;20207;-86
2022/09/26 01:28:39;;;;;;;8.47;7.60;;;11.10;99.90;;;;;;5032023;28;20180;-86
2022/09/26 01:32:47;;;;;;;8.30;7.50;;;11.10;99.90;;;;;;5032288;28;20193;-86
2022/09/26 01:34:55;;;;;;;8.57;7.67;;;11.10;99.90;;;;;;4995833;28;20185;-86
2022/09/26 01:37:59;;;;;;;6.90;6.20;;;11.00;99.90;;;;;;4986368;28;20196;-86
2022/09/26 01:40:31;;;;;;;12.33;9.17;;;11.00;99.90;;;;;;5015473;28;20252;-86
2022/09/26 01:43:14;;;;;;;10.13;8.57;;;10.90;99.90;;;;;;5032049;28;20189;-86
2022/09/26 01:46:13;;;;;;;9.67;8.67;;;10.80;99.90;;;;;;5034452;28;20221;-86
2022/09/26 01:48:47;;;;;;;11.43;8.83;;;10.80;99.90;;;;;;5018300;28;20186;-86
2022/09/26 01:51:27;;;;;;;10.47;8.17;;;10.80;99.90;;;;;;5035520;28;20203;-86
2022/09/26 01:54:07;;;;;;;8.83;7.70;;;10.90;99.90;;;;;;5018681;28;20187;-86
2022/09/26 01:56:37;;;;;;;9.13;7.43;;;10.90;99.90;;;;;;5018554;28;20241;-86
2022/09/26 01:59:13;;;;;;;9.53;7.23;;;11.00;99.90;;;;;;5034644;28;20182;-86
2022/09/26 02:01:49;;;;;;;8.40;7.30;;;11.00;99.90;;;;;;5019533;28;20225;-86
2022/09/26 02:04:27;;;;;;;7.10;6.40;;;11.00;99.90;;;;;;5017557;28;20250;-86
2022/09/26 02:07:23;;;;;;;8.20;7.40;;;11.10;99.90;;;;;;5018175;28;20176;-86
2022/09/26 02:09:58;;;;;;;9.30;7.73;;;11.10;99.90;;;;;;5018442;28;20181;-86
2022/09/26 02:12:38;;;;;;;7.73;7.03;;;11.10;99.90;;;;;;5018447;28;20264;-86
2022/09/26 02:15:15;;;;;;;7.83;7.03;;;11.10;99.90;;;;;;5018333;28;20305;-86
2022/09/26 02:17:45;;;;;;;8.60;6.77;;;11.10;99.90;;;;;;5017591;28;20191;-86
2022/09/26 02:20:17;;;;;;;7.53;6.73;;;11.20;99.90;;;;;;5018003;28;20320;-86
2022/09/26 02:22:44;;;;;;;9.53;6.97;;;11.20;99.90;;;;;;5018122;28;20193;-86
2022/09/26 02:25:14;;;;;;;8.33;6.63;;;11.20;99.90;;;;;;5034348;28;20198;-86
2022/09/26 02:27:40;;;;;;;7.90;7.10;;;11.20;99.90;;;;;;5017762;28;20184;-86
2022/09/26 02:30:08;;;;;;;6.63;6.03;;;11.20;99.90;;;;;;5017903;28;20184;-86
2022/09/26 02:32:36;;;;;;;7.40;6.70;;;11.20;99.90;;;;;;5018057;28;20546;-87
2022/09/26 02:35:52;;;;;;;7.47;6.60;;;11.20;99.90;;;;;;5034175;28;20231;-86
2022/09/26 02:38:01;;;;;;;6.80;5.97;;;11.10;99.90;;;;;;5034110;28;20171;-86
2022/09/26 02:41:12;;;;;;;6.13;5.53;;;11.10;99.90;;;;;;5017593;28;20202;-86
2022/09/26 02:43:40;;;;;;;5.13;4.40;;;11.10;99.90;;;;;;4938410;28;20187;-86
2022/09/26 02:46:25;;;;;;;5.37;4.67;;;11.10;99.90;;;;;;4935518;29;20229;-86
2022/09/26 02:49:24;;;;;;;5.47;4.90;;;11.10;99.90;;;;;;5000719;28;20533;-86
2022/09/26 02:52:14;;;;;;;5.07;4.47;;;11.10;99.90;;;;;;4988248;28;20217;-86
2022/09/26 02:55:12;;;;;;;4.93;4.53;;;11.10;99.90;;;;;;5014070;28;20185;-86
2022/09/26 02:57:58;;;;;;;4.80;4.30;;;11.10;99.90;;;;;;5013833;28;20191;-86
2022/09/26 03:00:30;;;;;;;5.03;4.37;;;11.00;99.90;;;;;;5013959;28;20248;-86
2022/09/26 03:03:08;;;;;;;4.70;4.30;;;11.00;99.90;;;;;;4997778;28;20187;-86
2022/09/26 03:05:40;;;;;;;4.90;4.30;;;11.00;99.90;;;;;;5014185;28;20209;-86
2022/09/26 03:08:14;;;;;;;4.30;3.90;;;11.10;99.90;;;;;;4997607;28;20210;-86
2022/09/26 03:10:41;;;;;;;3.77;3.47;;;11.10;99.90;;;;;;5014050;28;20176;-86
2022/09/26 03:13:12;;;;;;;5.07;3.40;;;11.10;99.90;;;;;;4997466;28;20190;-86
2022/09/26 03:15:40;;;;;;;3.83;3.50;;;11.10;99.90;;;;;;5015613;28;20212;-86
2022/09/26 03:18:12;;;;;;;4.97;4.47;;;11.10;99.90;;;;;;5016697;28;20214;-86
2022/09/26 03:20:39;;;;;;;5.63;5.10;;;11.10;99.90;;;;;;5033623;28;20211;-86
2022/09/26 03:23:06;;;;;;;5.90;5.27;;;11.20;99.90;;;;;;5017063;28;20194;-86
2022/09/26 03:25:32;;;;;;;6.90;5.40;;;11.20;99.90;;;;;;5016854;28;20285;-86
2022/09/26 03:28:04;;;;;;;5.07;4.57;;;11.20;99.90;;;;;;5017476;28;20213;-86
2022/09/26 03:30:30;;;;;;;6.03;4.80;;;11.20;99.90;;;;;;5016321;28;20185;-86
2022/09/26 03:33:16;;;;;;;5.23;4.73;;;11.20;99.90;;;;;;5022315;28;20232;-86
2022/09/26 03:35:42;;;;;;;6.40;4.73;;;11.10;99.90;;;;;;5051068;28;20204;-86
2022/09/26 03:38:08;;;;;;;6.90;4.70;;;11.10;99.90;;;;;;5016778;28;20179;-87
2022/09/26 03:40:40;;;;;;;5.27;4.77;;;11.10;99.90;;;;;;5009386;28;20687;-87
2022/09/26 03:43:25;;;;;;;5.13;4.50;;;11.10;99.90;;;;;;5015531;28;20242;-88
2022/09/26 03:45:53;;;;;;;5.77;5.27;;;11.10;99.90;;;;;;5016581;28;20215;-87
2022/09/26 03:48:23;;;;;;;6.20;5.60;;;11.10;99.90;;;;;;5016621;28;20170;-87
2022/09/26 03:50:49;;;;;;;7.70;5.10;;;11.10;99.90;;;;;;5016297;28;20210;-88
2022/09/26 03:53:15;;;;;;;5.73;5.13;;;11.10;99.90;;;;;;5015974;28;20194;-87
2022/09/26 03:55:41;;;;;;;7.10;5.37;;;11.10;99.90;;;;;;5015717;28;20199;-87
2022/09/26 03:58:07;;;;;;;5.83;5.33;;;11.10;99.90;;;;;;5005257;28;20186;-87
2022/09/26 04:00:38;;;;;;;7.67;5.50;;;11.10;99.90;;;;;;5012574;28;20725;-87
2022/09/26 04:03:05;;;;;;;6.50;5.60;;;11.10;99.90;;;;;;5027993;28;20173;-87
2022/09/26 04:05:36;;;;;;;6.73;6.10;;;11.10;99.90;;;;;;5017939;28;20190;-87
2022/09/26 04:08:03;;;;;;;6.40;5.30;;;11.00;99.90;;;;;;5016047;28;20185;-87
2022/09/26 04:10:30;;;;;;;6.23;5.20;;;11.00;99.90;;;;;;5012630;28;20296;-87
2022/09/26 04:12:56;;;;;;;6.97;6.27;;;11.00;99.90;;;;;;5012983;28;20206;-87
2022/09/26 04:15:23;;;;;;;5.80;5.10;;;11.00;99.90;;;;;;5013905;28;20655;-87
2022/09/26 04:17:58;;;;;;;6.33;5.73;;;10.90;99.90;;;;;;5010405;28;20207;-87
2022/09/26 04:20:24;;;;;;;7.90;6.00;;;10.90;99.90;;;;;;5019548;28;20217;-87
2022/09/26 04:22:51;;;;;;;6.53;5.93;;;10.90;99.90;;;;;;5036636;28;20185;-87
2022/09/26 04:25:16;;;;;;;6.03;5.43;;;10.80;99.90;;;;;;5038453;28;20193;-87
2022/09/26 04:27:42;;;;;;;6.83;5.90;;;10.80;99.90;;;;;;5044378;28;20173;-88
2022/09/26 04:30:10;;;;;;;5.63;5.13;;;10.80;99.90;;;;;;5044680;28;20179;-88
2022/09/26 04:32:47;;;;;;;5.80;5.07;;;10.80;99.90;;;;;;5050778;28;20225;-88
2022/09/26 04:35:24;;;;;;;5.63;5.13;;;10.80;99.90;;;;;;5041374;28;20205;-88
2022/09/26 04:37:50;;;;;;;5.23;4.73;;;10.80;99.90;;;;;;5006490;28;20302;-88
2022/09/26 04:40:16;;;;;;;6.27;5.17;;;10.80;99.90;;;;;;5023847;28;20206;-87
2022/09/26 04:42:57;;;;;;;4.70;4.30;;;10.80;99.90;;;;;;5021538;28;20178;-87
2022/09/26 04:45:24;;;;;;;7.20;5.60;;;10.80;99.90;;;;;;5005118;28;20763;-89
2022/09/26 04:47:50;;;;;;;5.30;4.80;;;10.70;99.90;;;;;;5004954;28;20266;-88
2022/09/26 04:50:27;;;;;;;6.10;4.80;;;10.70;99.90;;;;;;5022960;28;20217;-87
2022/09/26 04:53:05;;;;;;;5.77;4.80;;;10.70;99.90;;;;;;5006613;28;20178;-87
2022/09/26 04:55:34;;;;;;;5.57;5.00;;;10.80;99.90;;;;;;5036386;28;20205;-88
2022/09/26 04:58:01;;;;;;;5.60;4.80;;;10.80;99.90;;;;;;5024752;28;20213;-86
2022/09/26 05:00:32;;;;;;;5.70;5.10;;;10.80;99.90;;;;;;5024036;28;20218;-87
2022/09/26 05:03:03;;;;;;;5.73;5.00;;;10.80;99.90;;;;;;5025239;28;20706;-87
2022/09/26 05:05:32;;;;;;;5.73;5.00;;;10.70;99.90;;;;;;5024595;28;20689;-87
2022/09/26 05:07:58;;;;;;;5.23;4.63;;;10.70;99.90;;;;;;5024460;28;20177;-87
2022/09/26 05:10:24;;;;;;;5.10;4.60;;;10.60;99.90;;;;;;5024370;28;20182;-87
2022/09/26 05:12:58;;;;;;;4.90;4.40;;;10.60;99.90;;;;;;5025373;28;20183;-87
2022/09/26 05:15:28;;;;;;;5.47;4.97;;;10.60;99.90;;;;;;5006339;28;20215;-87
2022/09/26 05:17:58;;;;;;;5.37;4.87;;;10.60;99.90;;;;;;5036029;28;20666;-87
2022/09/26 05:20:30;;;;;;;7.33;4.73;;;10.50;99.90;;;;;;5023297;28;20207;-87
2022/09/26 05:23:03;;;;;;;6.97;4.67;;;10.50;99.90;;;;;;5020419;28;20289;-87
2022/09/26 05:28:24;;;;;;;5.07;4.57;;;10.50;99.90;;;;;;5040404;28;20178;-87
2022/09/26 05:30:52;;;;;;;6.20;5.40;;;10.50;99.90;;;;;;5035232;28;20252;-87
2022/09/26 05:33:20;;;;;;;5.00;4.50;;;10.60;99.90;;;;;;5040000;28;20261;-87
2022/09/26 05:35:53;;;;;;;5.93;5.33;;;10.60;99.90;;;;;;5018687;28;20257;-86
2022/09/26 05:38:20;;;;;;;5.50;4.70;;;10.60;99.90;;;;;;5018166;28;20200;-87
2022/09/26 05:40:58;;;;;;;5.90;5.30;;;10.60;99.90;;;;;;5034181;28;20206;-87
2022/09/26 05:43:28;;;;;;;6.17;4.77;;;10.60;99.90;;;;;;5018636;28;20265;-86
2022/09/26 05:46:06;;;;;;;5.47;4.40;;;10.70;99.90;;;;;;5007094;28;20786;-86
2022/09/26 05:48:38;;;;;;;5.20;4.70;;;10.70;99.90;;;;;;5032610;28;20174;-86
2022/09/26 05:51:15;;;;;;;5.37;4.87;;;10.70;99.90;;;;;;5017714;28;20179;-86
2022/09/26 05:53:44;;;;;;;5.47;4.97;;;10.70;99.90;;;;;;5001354;28;20192;-86
2022/09/26 05:56:13;;;;;;;5.60;4.50;;;10.70;99.90;;;;;;5016212;28;20294;-87
2022/09/26 05:59:07;;;;;;;6.20;4.73;;;10.80;99.90;;;;;;5020932;28;20215;-89
2022/09/26 06:01:51;;;;;;;5.23;4.33;;;10.80;99.90;;;;;;5025307;28;20239;-86
2022/09/26 06:04:33;;;;;;;7.73;4.70;;;10.80;99.90;;;;;;5020335;28;20175;-92
2022/09/26 06:07:16;;;;;;;5.20;4.70;;;10.80;99.90;;;;;;5000458;28;20180;-87
2022/09/26 06:09:43;;;;;;;4.90;4.27;;;10.80;99.90;;;;;;4999482;28;20184;-87
2022/09/26 06:12:33;;;;;;;4.63;4.20;;;10.70;99.90;;;;;;5001839;28;20179;-87
2022/09/26 06:14:59;;;;;;;4.67;4.27;;;10.80;99.90;;;;;;5022925;28;20199;-87
2022/09/26 06:17:25;;;;;;;4.53;4.03;;;10.80;99.90;;;;;;5009215;28;20181;-84
2022/09/26 06:19:52;;;;;;;8.07;7.23;;;10.80;99.90;;;;;;5017665;28;20175;-88
2022/09/26 06:22:18;;;;;;;7.20;5.60;;;10.90;99.90;;;;;;5004256;28;20256;-88
2022/09/26 06:24:44;;;;;;;5.00;4.60;;;10.90;99.90;;;;;;5002682;28;20190;-86
2022/09/26 06:27:28;;;;;;;4.97;4.47;;;11.00;99.90;;;;;;5001012;28;20170;-89
2022/09/26 06:29:54;;;;;;;7.70;4.07;;;11.00;99.90;;;;;;5019979;28;20166;-88
2022/09/26 06:32:20;;;;;;;6.83;4.40;;;11.00;99.90;;;;;;5007458;28;20187;-87
2022/09/26 06:35:07;;;;;;;7.73;4.70;;;11.10;99.90;;;;;;5037389;28;20199;-87
2022/09/26 06:37:44;;;;;;;5.13;4.57;;;11.10;99.90;;;;;;5032398;28;20169;-89
2022/09/26 06:40:10;;;;;;;5.73;4.60;;;11.10;99.90;;;;;;5017686;28;20174;-86
2022/09/26 06:42:39;;;;;;;6.83;4.37;;;11.20;99.90;;;;;;5009562;28;20171;-87
2022/09/26 06:45:27;;;;;;;7.33;4.17;;;11.20;99.90;;;;;;5035322;28;20190;-89
2022/09/26 06:48:10;;;;;;;5.53;5.00;;;11.30;99.90;;;;;;5027155;28;20174;-88
2022/09/26 06:51:09;;;;;;;5.27;4.57;;;11.30;99.90;;;;;;5041190;28;20185;-88
2022/09/26 06:53:37;;;;;;;5.80;4.67;;;11.30;99.90;;;;;;5038369;28;20184;-87
2022/09/26 06:56:03;;;;;;;5.30;4.70;;;11.30;99.90;;;;;;5027179;28;20199;-88
2022/09/26 06:58:31;;;;;;;5.33;4.80;;;11.40;99.90;;;;;;5013387;28;20181;-88
2022/09/26 07:01:06;;;;;;;5.20;4.70;;;11.40;99.90;;;;;;5017216;28;20201;-87
2022/09/26 07:04:02;;;;;;;4.57;4.03;;;11.50;99.90;;;;;;5013735;28;20198;-88
2022/09/26 07:06:48;;;;;;;6.27;4.43;;;11.50;99.90;;;;;;5015628;28;20195;-87
2022/09/26 07:09:27;;;;;;;4.70;4.30;;;11.60;99.90;;;;;;5017791;28;20179;-87
2022/09/26 07:12:00;;;;;;;5.13;4.27;;;11.60;99.90;;;;;;5018184;28;20180;-89
2022/09/26 07:14:30;;;;;;;5.20;4.27;;;11.70;99.90;;;;;;5017235;28;20192;-90
2022/09/26 07:17:11;;;;;;;4.40;4.00;;;11.70;99.90;;;;;;5010480;28;20192;-88
2022/09/26 07:19:44;;;;;;;4.80;4.20;;;11.70;99.90;;;;;;5006763;28;20207;-87
2022/09/26 07:22:31;;;;;;;4.47;3.97;;;11.80;99.90;;;;;;5056212;28;20215;-87
2022/09/26 07:25:07;;;;;;;7.33;4.33;;;11.80;99.90;;;;;;5031514;28;20199;-89
2022/09/26 07:27:49;;;;;;;4.90;3.93;;;11.90;99.90;;;;;;5013834;28;20183;-88
2022/09/26 07:30:20;;;;;;;5.67;4.27;;;12.00;99.90;;;;;;5014160;28;20193;-86
2022/09/26 07:33:08;;;;;;;4.17;3.60;;;12.10;99.90;;;;;;4999863;28;20187;-87
2022/09/26 07:35:49;;;;;;;4.57;3.77;;;12.10;99.90;;;;;;5015016;28;20689;-89
2022/09/26 07:38:29;;;;;;;5.97;3.60;;;12.10;99.90;;;;;;5053162;28;20196;-87
2022/09/26 07:40:59;;;;;;;3.97;3.10;;;12.10;99.90;;;;;;5037537;28;20251;-88
2022/09/26 07:43:38;;;;;;;5.60;3.67;;;12.20;99.90;;;;;;5036960;28;20177;-88
2022/09/26 07:52:21;;;;;;;5.33;3.23;;;12.20;99.90;;;;;;4968326;28;20191;-87
2022/09/26 07:55:17;;;;;;;3.30;3.00;;;12.30;99.90;;;;;;5018730;28;20766;-87
2022/09/26 07:58:05;;;;;;;4.80;3.07;;;12.30;99.90;;;;;;4996141;28;20221;-87
2022/09/26 08:00:32;;;;;;;4.63;3.00;;;12.30;99.90;;;;;;5021777;28;20242;-87
2022/09/26 08:03:25;;;;;;;2.93;2.57;;;12.40;99.90;;;;;;5020133;28;20270;-87
2022/09/26 08:05:58;;;;;;;3.03;2.70;;;12.50;99.90;;;;;;5016848;28;20208;-87
2022/09/26 08:08:25;;;;;;;4.80;2.70;;;12.40;99.90;;;;;;5016830;28;20182;-87
2022/09/26 08:11:00;;;;;;;4.93;3.27;;;12.50;99.90;;;;;;5025807;28;20227;-87
2022/09/26 08:13:47;;;;;;;5.57;3.20;;;12.70;99.90;;;;;;5038482;28;20190;-86
2022/09/26 08:16:44;;;;;;;4.63;2.80;;;12.70;99.90;;;;;;5016198;28;20206;-87
2022/09/26 08:19:19;;;;;;;4.90;2.93;;;12.80;99.90;;;;;;5037721;28;20183;-87
2022/09/26 08:21:52;;;;;;;4.80;2.70;;;13.00;99.90;;;;;;5045982;28;20214;-87
2022/09/26 08:24:19;;;;;;;5.40;2.63;;;13.20;99.90;;;;;;5035891;28;20219;-87
2022/09/26 08:27:08;;;;;;;2.70;2.50;;;13.40;99.90;;;;;;4985259;28;20202;-87
2022/09/26 08:29:40;;;;;;;2.97;2.67;;;13.50;99.90;;;;;;5015574;28;20178;-87
2022/09/26 08:32:07;;;;;;;3.53;2.80;;;13.60;99.90;;;;;;5016404;28;20185;-87
2022/09/26 08:34:34;;;;;;;3.60;2.80;;;13.70;99.90;;;;;;5016163;28;20199;-86
2022/09/26 08:37:19;;;;;;;4.77;2.80;;;13.80;99.90;;;;;;5035231;28;20254;-87
2022/09/26 08:40:11;;;;;;;3.23;2.47;;;13.90;99.90;;;;;;5035682;28;20189;-87
2022/09/26 08:43:07;;;;;;;3.47;2.70;;;13.80;99.90;;;;;;5035561;28;20304;-87
2022/09/26 08:46:49;;;;;;;5.03;3.00;;;13.90;99.90;;;;;;5032803;28;20213;-87
2022/09/26 08:49:51;;;;;;;4.23;3.07;;;13.80;99.90;;;;;;4990446;28;20185;-87
2022/09/26 08:52:49;;;;;;;5.20;3.13;;;13.80;99.90;;;;;;5016745;28;20185;-87
2022/09/26 08:55:31;;;;;;;5.37;2.43;;;14.00;99.90;;;;;;5033408;28;20201;-87
2022/09/26 08:57:59;;;;;;;4.87;2.67;;;14.00;99.90;;;;;;5016309;28;20206;-87
2022/09/26 09:00:30;;;;;;;3.27;2.50;;;14.00;99.90;;;;;;5016141;28;20265;-87
2022/09/26 09:03:09;;;;;;;4.13;2.57;;;14.10;99.90;;;;;;5017002;28;20177;-87
2022/09/26 09:05:43;;;;;;;3.60;2.63;;;14.20;99.90;;;;;;5015673;28;20210;-87
2022/09/26 09:08:20;;;;;;;5.60;2.77;;;14.30;99.90;;;;;;5016118;28;20265;-87
2022/09/26 09:11:09;;;;;;;6.80;3.57;;;14.50;99.90;;;;;;5018569;28;20178;-87
2022/09/26 09:13:58;;;;;;;8.77;3.40;;;14.70;99.90;;;;;;5018850;28;20182;-87
2022/09/26 09:16:52;;;;;;;5.00;3.03;;;14.90;99.90;;;;;;5038794;28;20693;-87
2022/09/26 09:19:49;;;;;;;3.33;2.60;;;15.00;99.90;;;;;;5037440;28;20178;-87
2022/09/26 09:22:45;;;;;;;4.90;2.50;;;15.20;99.90;;;;;;4965126;28;20283;-87
2022/09/26 09:25:31;;;;;;;11.43;4.07;;;15.20;99.90;;;;;;5020529;28;20221;-87
2022/09/26 09:28:55;;;;;;;4.80;2.90;;;15.30;99.90;;;;;;5018843;28;20212;-87
2022/09/26 09:31:26;;;;;;;4.00;2.20;;;15.40;99.90;;;;;;5035840;28;20182;-87
2022/09/26 09:34:27;;;;;;;3.70;2.40;;;15.30;99.90;;;;;;5035747;28;20173;-87
2022/09/26 09:37:44;;;;;;;3.87;2.27;;;15.40;99.90;;;;;;5021996;28;20173;-87
2022/09/26 09:40:30;;;;;;;2.83;2.30;;;15.50;99.90;;;;;;5035418;28;20201;-87
2022/09/26 09:43:11;;;;;;;5.07;2.20;;;15.70;99.90;;;;;;5019252;28;20177;-87
2022/09/26 09:45:44;;;;;;;4.73;1.70;;;15.80;99.90;;;;;;5035301;28;20666;-87
2022/09/26 09:48:12;;;;;;;3.33;1.60;;;15.90;99.90;;;;;;5018154;28;20256;-87
2022/09/26 09:51:06;;;;;;;3.97;1.67;;;15.80;99.90;;;;;;5029138;28;20248;-87
2022/09/26 09:54:16;;;;;;;4.17;1.60;;;15.70;99.90;;;;;;5017637;28;20231;-86
2022/09/26 09:57:23;;;;;;;3.03;1.87;;;15.80;99.90;;;;;;5047438;28;20292;-87
2022/09/26 10:00:13;;;;;;;2.10;1.53;;;15.80;99.90;;;;;;5026789;28;20209;-87
2022/09/26 10:03:37;;;;;;;1.80;1.50;;;15.90;99.90;;;;;;5017928;28;20190;-87
2022/09/26 10:06:21;;;;;;;2.90;1.77;;;16.20;99.90;;;;;;5056358;28;20274;-87
2022/09/26 10:08:51;;;;;;;4.43;2.07;;;16.40;99.90;;;;;;5021680;28;20184;-85
2022/09/26 10:11:47;;;;;;;1.70;1.60;;;16.30;99.90;;;;;;5027164;28;20208;-88
2022/09/26 10:15:03;;;;;;;1.87;1.40;;;16.10;99.90;;;;;;5032422;28;20669;-87
2022/09/26 10:18:16;;;;;;;4.33;1.60;;;15.90;99.90;;;;;;5022942;28;20281;-86
2022/09/26 10:21:05;;;;;;;2.23;1.40;;;15.70;99.90;;;;;;5020183;28;20192;-87
2022/09/26 10:23:41;;;;;;;3.23;1.40;;;15.60;99.90;;;;;;5037771;28;20197;-87
2022/09/26 10:26:36;;;;;;;1.90;1.27;;;15.80;99.90;;;;;;5011185;28;20202;-87
2022/09/26 10:29:23;;;;;;;2.63;1.27;;;16.10;99.90;;;;;;5018301;28;20170;-87
2022/09/26 10:32:00;;;;;;;1.70;1.50;;;16.30;99.90;;;;;;5027548;28;20221;-87
2022/09/26 10:34:29;;;;;;;3.10;1.40;;;16.30;99.90;;;;;;5021130;28;20316;-87
2022/09/26 10:36:55;;;;;;;2.53;1.30;;;16.60;99.90;;;;;;5034418;28;20193;-87
2022/09/26 10:42:21;;;;;;;2.43;1.37;;;16.90;99.90;;;;;;5017636;28;20289;-87
2022/09/26 10:44:56;;;;;;;2.40;0.97;;;16.90;99.90;;;;;;5019869;28;20233;-87
2022/09/26 10:47:46;;;;;;;2.43;1.20;;;16.80;99.90;;;;;;5039312;28;20233;-87
2022/09/26 10:50:23;;;;;;;3.13;1.40;;;16.60;99.90;;;;;;5029889;28;20194;-86
2022/09/26 10:53:10;;;;;;;3.37;0.97;;;16.60;99.90;;;;;;5035544;28;20241;-87
2022/09/26 10:55:42;;;;;;;4.57;1.20;;;16.50;99.90;;;;;;5025504;28;20205;-87
2022/09/26 10:58:18;;;;;;;2.60;1.20;;;16.20;99.90;;;;;;5021915;28;20171;-87
2022/09/26 11:00:51;;;;;;;1.97;0.80;;;16.00;99.90;;;;;;5019544;28;20217;-87
2022/09/26 11:03:33;;;;;;;0.70;0.60;;;15.90;99.90;;;;;;5035244;28;20181;-87
2022/09/26 11:06:33;;;;;;;1.03;0.60;;;15.90;99.90;;;;;;5004516;28;20194;-86
2022/09/26 11:09:29;;;;;;;1.10;0.80;;;15.90;99.90;;;;;;5028518;28;20169;-87
2022/09/26 11:12:26;;;;;;;1.30;0.90;;;15.90;99.90;;;;;;5046689;28;20212;-87
2022/09/26 11:14:59;;;;;;;2.80;0.90;;;16.00;99.90;;;;;;5019624;28;20221;-87
2022/09/26 11:17:46;;;;;;;1.10;0.80;;;16.00;99.90;;;;;;5019033;28;20240;-88
2022/09/26 11:20:24;;;;;;;1.30;1.20;;;16.00;99.90;;;;;;5016023;28;20175;-88
2022/09/26 11:23:17;;;;;;;2.20;1.20;;;15.90;99.90;;;;;;5013801;28;20232;-88
2022/09/26 11:26:17;;;;;;;2.27;1.33;;;15.90;99.90;;;;;;5033853;28;20190;-87
2022/09/26 11:28:54;;;;;;;1.80;1.37;;;15.80;99.90;;;;;;4998260;28;20186;-87
2022/09/26 11:31:41;;;;;;;1.57;1.03;;;15.80;99.90;;;;;;5023712;28;20269;-87
2022/09/26 11:34:33;;;;;;;1.03;0.83;;;15.80;99.90;;;;;;5028858;28;20182;-87
2022/09/26 11:37:29;;;;;;;1.43;0.83;;;15.70;99.90;;;;;;4997709;28;20170;-87
2022/09/26 11:40:19;;;;;;;0.70;0.70;;;15.60;99.90;;;;;;5014340;28;20179;-87
2022/09/26 11:42:57;;;;;;;1.30;0.77;;;15.50;99.90;;;;;;5031158;28;20210;-87
2022/09/26 11:45:42;;;;;;;1.23;0.70;;;15.50;99.90;;;;;;5013931;28;20201;-87
2022/09/26 11:49:02;;;;;;;1.57;0.90;;;15.40;99.90;;;;;;5025964;28;20213;-87
2022/09/26 11:52:13;;;;;;;0.53;0.53;;;15.40;99.90;;;;;;5052042;28;20181;-87
2022/09/26 11:55:09;;;;;;;2.20;0.70;;;15.30;99.90;;;;;;5016659;28;20268;-87
2022/09/26 11:58:04;;;;;;;1.43;0.70;;;15.30;99.90;;;;;;5022819;28;20277;-83
2022/09/26 12:00:43;;;;;;;0.83;0.60;;;15.40;99.90;;;;;;5012554;28;20238;-88
2022/09/26 12:03:30;;;;;;;0.67;0.67;;;15.70;99.90;;;;;;5027783;28;20522;-88
2022/09/26 12:06:17;;;;;;;0.80;0.60;;;16.00;99.90;;;;;;5018600;28;20197;-87
2022/09/26 12:08:46;;;;;;;1.00;0.90;;;16.30;99.90;;;;;;5021297;28;20173;-88
2022/09/26 12:11:27;;;;;;;1.37;0.80;;;16.40;99.90;;;;;;5046097;28;20176;-88
2022/09/26 12:14:21;;;;;;;1.47;0.77;;;16.50;99.90;;;;;;5018309;28;20201;-88
2022/09/26 12:17:01;;;;;;;1.10;0.73;;;16.50;99.90;;;;;;5007616;28;20257;-87
2022/09/26 12:19:31;;;;;;;1.47;1.17;;;16.30;99.90;;;;;;5016852;28;20175;-88
2022/09/26 12:22:30;;;;;;;1.30;1.00;;;16.10;99.90;;;;;;5016048;28;20202;-88
2022/09/26 12:25:08;;;;;;;1.13;0.90;;;15.90;99.90;;;;;;5025027;28;20209;-88
2022/09/26 12:28:07;;;;;;;0.87;0.87;;;15.90;99.90;;;;;;5012621;28;20174;-87
2022/09/26 12:30:33;;;;;;;1.17;0.97;;;15.70;99.90;;;;;;4996638;28;20256;-88
2022/09/26 12:33:35;;;;;;;1.37;1.07;;;15.50;99.90;;;;;;5013922;28;20187;-88
2022/09/26 12:36:21;;;;;;;4.00;1.70;;;15.40;99.90;;;;;;5015533;28;20205;-89
2022/09/26 12:39:00;;;;;;;2.90;1.60;;;15.30;99.90;;;;;;5029327;28;20224;-90
2022/09/26 12:41:56;;;;;;;4.33;1.63;;;14.80;99.90;;;;;;5015010;28;20204;-87
2022/09/26 12:44:37;;;;;;;4.80;1.37;;;14.10;99.90;;;;;;5031388;28;20183;-87
2022/09/26 12:47:18;;;;;;;1.30;1.03;;;13.50;99.90;;;;;;5023035;28;20192;-87
2022/09/26 12:49:53;;;;;;;1.83;1.20;;;13.20;99.90;;;;;;5033441;28;20184;-87
2022/09/26 12:52:29;;;;;;;3.53;1.10;;;13.00;99.90;;;;;;5038299;28;20186;-88
2022/09/26 12:55:32;;;;;;;2.30;1.10;;;13.00;99.90;;;;;;5010879;28;20208;-87
2022/09/26 12:57:59;;;;;;;2.40;1.10;;;13.20;99.90;;;;;;5039794;28;20327;-87
2022/09/26 13:00:30;;;;;;;1.70;1.13;;;13.40;99.90;;;;;;5041350;28;20184;-88
2022/09/26 13:03:15;;;;;;;2.00;1.13;;;13.50;99.90;;;;;;5020420;28;20173;-88
2022/09/26 13:06:00;;;;;;;2.17;1.00;;;13.50;99.90;;;;;;5053657;28;20193;-88
2022/09/26 13:09:20;;;;;;;0.80;0.80;;;13.50;99.90;;;;;;5031317;28;20273;-87
2022/09/26 13:11:58;;;;;;;2.30;0.90;;;13.50;99.90;;;;;;4918449;29;20189;-88
2022/09/26 13:15:00;;;;;;;2.67;1.30;;;13.50;99.90;;;;;;4942597;28;20212;-88
2022/09/26 13:17:40;;;;;;;2.67;1.10;;;13.60;99.90;;;;;;5051763;28;20189;-87
2022/09/26 13:20:36;;;;;;;2.03;1.07;;;13.60;99.90;;;;;;5028878;28;20177;-88
2022/09/26 13:23:20;;;;;;;2.27;0.90;;;13.70;99.90;;;;;;5020083;28;20201;-87
2022/09/26 13:25:54;;;;;;;1.97;1.30;;;13.70;99.90;;;;;;5021534;28;20201;-88
2022/09/26 13:29:02;;;;;;;2.10;1.33;;;13.80;99.90;;;;;;5006931;28;20187;-87
2022/09/26 13:31:54;;;;;;;1.37;1.17;;;14.00;99.90;;;;;;5016140;28;20236;-88
2022/09/26 13:34:47;;;;;;;2.50;1.20;;;14.30;99.90;;;;;;5017453;28;20237;-88
2022/09/26 13:37:30;;;;;;;1.50;1.20;;;14.50;99.90;;;;;;5012727;28;20177;-87
2022/09/26 13:40:42;;;;;;;1.83;1.20;;;14.80;99.90;;;;;;5015248;28;20177;-88
2022/09/26 13:43:31;;;;;;;2.00;1.07;;;15.10;99.90;;;;;;4981437;28;20229;-88
2022/09/26 13:46:09;;;;;;;2.00;1.20;;;15.30;99.90;;;;;;5014597;28;20206;-87
2022/09/26 13:48:57;;;;;;;1.83;1.47;;;15.50;99.90;;;;;;5017204;28;20189;-87
2022/09/26 13:51:53;;;;;;;2.03;0.97;;;15.60;99.90;;;;;;5028542;28;20205;-87
2022/09/26 13:54:44;;;;;;;1.37;0.90;;;15.50;99.90;;;;;;5001444;28;20182;-87
2022/09/26 13:57:48;;;;;;;1.93;1.00;;;15.40;99.90;;;;;;5033666;28;20204;-87
2022/09/26 14:00:22;;;;;;;1.77;1.37;;;15.60;99.90;;;;;;5025793;28;20174;-87